sensor_id;sensor_type;location;lat;lon;timestamp;temperature;humidity
11744;DHT22;5929;51.906;7.674;2023-05-07T00:00:55;14.20;99.90
11744;DHT22;5929;51.906;7.674;2023-05-07T00:03:26;14.20;99.90
11744;DHT22;5929;51.906;7.674;2023-05-07T00:05:53;14.20;99.90
11744;DHT22;5929;51.906;7.674;2023-05-07T00:08:20;14.20;99.90
11744;DHT22;5929;51.906;7.674;2023-05-07T00:10:47;14.20;99.90
11744;DHT22;5929;51.906;7.674;2023-05-07T00:13:14;14.20;99.90
11744;DHT22;5929;51.906;7.674;2023-05-07T00:15:41;14.30;99.90
11744;DHT22;5929;51.906;7.674;2023-05-07T00:18:08;14.20;99.90
11744;DHT22;5929;51.906;7.674;2023-05-07T00:20:36;14.20;99.90
11744;DHT22;5929;51.906;7.674;2023-05-07T00:23:03;14.20;99.90
11744;DHT22;5929;51.906;7.674;2023-05-07T00:25:30;14.30;99.90
11744;DHT22;5929;51.906;7.674;2023-05-07T00:27:56;14.20;99.90
11744;DHT22;5929;51.906;7.674;2023-05-07T00:30:28;14.20;99.90
11744;DHT22;5929;51.906;7.674;2023-05-07T00:32:55;14.20;99.90
11744;DHT22;5929;51.906;7.674;2023-05-07T00:35:22;14.20;99.90
11744;DHT22;5929;51.906;7.674;2023-05-07T00:37:51;14.30;99.90
11744;DHT22;5929;51.906;7.674;2023-05-07T00:40:18;14.20;99.90
11744;DHT22;5929;51.906;7.674;2023-05-07T00:42:45;14.20;99.90
11744;DHT22;5929;51.906;7.674;2023-05-07T00:45:12;14.20;99.90
11744;DHT22;5929;51.906;7.674;2023-05-07T00:47:39;14.20;99.90
11744;DHT22;5929;51.906;7.674;2023-05-07T00:50:08;14.20;99.90
11744;DHT22;5929;51.906;7.674;2023-05-07T00:52:38;14.20;99.90
11744;DHT22;5929;51.906;7.674;2023-05-07T00:55:08;14.10;99.90
11744;DHT22;5929;51.906;7.674;2023-05-07T00:57:36;14.10;99.90
11744;DHT22;5929;51.906;7.674;2023-05-07T01:00:06;14.10;99.90
11744;DHT22;5929;51.906;7.674;2023-05-07T01:02:34;14.10;99.90
11744;DHT22;5929;51.906;7.674;2023-05-07T01:05:02;14.10;99.90
11744;DHT22;5929;51.906;7.674;2023-05-07T01:07:29;14.10;99.90
11744;DHT22;5929;51.906;7.674;2023-05-07T01:09:57;14.10;99.90
11744;DHT22;5929;51.906;7.674;2023-05-07T01:12:25;14.00;99.90
11744;DHT22;5929;51.906;7.674;2023-05-07T01:14:53;14.00;99.90
11744;DHT22;5929;51.906;7.674;2023-05-07T01:17:20;14.00;99.90
11744;DHT22;5929;51.906;7.674;2023-05-07T01:19:47;13.90;99.90
11744;DHT22;5929;51.906;7.674;2023-05-07T01:22:15;13.90;99.90
11744;DHT22;5929;51.906;7.674;2023-05-07T01:24:44;13.90;99.90
11744;DHT22;5929;51.906;7.674;2023-05-07T01:27:11;13.80;99.90
11744;DHT22;5929;51.906;7.674;2023-05-07T01:29:38;13.70;99.90
11744;DHT22;5929;51.906;7.674;2023-05-07T01:32:05;13.70;99.90
11744;DHT22;5929;51.906;7.674;2023-05-07T01:34:34;13.70;99.90
11744;DHT22;5929;51.906;7.674;2023-05-07T01:37:03;13.70;99.90
11744;DHT22;5929;51.906;7.674;2023-05-07T01:39:30;13.60;99.90
11744;DHT22;5929;51.906;7.674;2023-05-07T01:41:59;13.60;99.90
11744;DHT22;5929;51.906;7.674;2023-05-07T01:44:26;13.60;99.90
11744;DHT22;5929;51.906;7.674;2023-05-07T01:46:53;13.60;99.90
11744;DHT22;5929;51.906;7.674;2023-05-07T01:49:21;13.60;99.90
11744;DHT22;5929;51.906;7.674;2023-05-07T01:51:48;13.60;99.90
11744;DHT22;5929;51.906;7.674;2023-05-07T01:54:16;13.60;99.90
11744;DHT22;5929;51.906;7.674;2023-05-07T01:56:43;13.50;99.90
11744;DHT22;5929;51.906;7.674;2023-05-07T01:59:13;13.50;99.90
11744;DHT22;5929;51.906;7.674;2023-05-07T02:01:40;13.50;99.90
11744;DHT22;5929;51.906;7.674;2023-05-07T02:04:07;13.50;99.90
11744;DHT22;5929;51.906;7.674;2023-05-07T02:06:34;13.50;99.90
11744;DHT22;5929;51.906;7.674;2023-05-07T02:09:01;13.50;99.90
11744;DHT22;5929;51.906;7.674;2023-05-07T02:11:28;13.60;99.90
11744;DHT22;5929;51.906;7.674;2023-05-07T02:13:55;13.50;99.90
11744;DHT22;5929;51.906;7.674;2023-05-07T02:16:23;13.50;99.90
11744;DHT22;5929;51.906;7.674;2023-05-07T02:18:50;13.60;99.90
11744;DHT22;5929;51.906;7.674;2023-05-07T02:21:16;13.60;99.90
11744;DHT22;5929;51.906;7.674;2023-05-07T02:23:43;13.60;99.90
11744;DHT22;5929;51.906;7.674;2023-05-07T02:26:10;13.50;99.90
11744;DHT22;5929;51.906;7.674;2023-05-07T02:28:37;13.50;99.90
11744;DHT22;5929;51.906;7.674;2023-05-07T02:31:04;13.50;99.90
11744;DHT22;5929;51.906;7.674;2023-05-07T02:33:32;13.50;99.90
11744;DHT22;5929;51.906;7.674;2023-05-07T02:36:06;13.50;99.90
11744;DHT22;5929;51.906;7.674;2023-05-07T02:38:33;13.50;99.90
11744;DHT22;5929;51.906;7.674;2023-05-07T02:41:00;13.50;99.90
11744;DHT22;5929;51.906;7.674;2023-05-07T02:43:27;13.50;99.90
11744;DHT22;5929;51.906;7.674;2023-05-07T02:46:01;13.50;99.90
11744;DHT22;5929;51.906;7.674;2023-05-07T02:48:28;13.50;99.90
11744;DHT22;5929;51.906;7.674;2023-05-07T02:50:56;13.50;99.90
11744;DHT22;5929;51.906;7.674;2023-05-07T02:53:23;13.50;99.90
11744;DHT22;5929;51.906;7.674;2023-05-07T02:55:51;13.50;99.90
11744;DHT22;5929;51.906;7.674;2023-05-07T02:58:18;13.50;99.90
11744;DHT22;5929;51.906;7.674;2023-05-07T03:00:45;13.50;99.90
11744;DHT22;5929;51.906;7.674;2023-05-07T03:03:12;13.50;99.90
11744;DHT22;5929;51.906;7.674;2023-05-07T03:05:40;13.50;99.90
11744;DHT22;5929;51.906;7.674;2023-05-07T03:08:09;13.50;99.90
11744;DHT22;5929;51.906;7.674;2023-05-07T03:10:36;13.40;99.90
11744;DHT22;5929;51.906;7.674;2023-05-07T03:13:03;13.50;99.90
11744;DHT22;5929;51.906;7.674;2023-05-07T03:15:30;13.50;99.90
11744;DHT22;5929;51.906;7.674;2023-05-07T03:17:57;13.40;99.90
11744;DHT22;5929;51.906;7.674;2023-05-07T03:20:24;13.40;99.90
11744;DHT22;5929;51.906;7.674;2023-05-07T03:22:51;13.40;99.90
11744;DHT22;5929;51.906;7.674;2023-05-07T03:25:19;13.30;99.90
11744;DHT22;5929;51.906;7.674;2023-05-07T03:27:48;13.30;99.90
11744;DHT22;5929;51.906;7.674;2023-05-07T03:30:15;13.40;99.90
11744;DHT22;5929;51.906;7.674;2023-05-07T03:32:42;13.30;99.90
11744;DHT22;5929;51.906;7.674;2023-05-07T03:35:09;13.30;99.90
11744;DHT22;5929;51.906;7.674;2023-05-07T03:37:37;13.20;99.90
11744;DHT22;5929;51.906;7.674;2023-05-07T03:40:05;13.20;99.90
11744;DHT22;5929;51.906;7.674;2023-05-07T03:42:34;13.20;99.90
11744;DHT22;5929;51.906;7.674;2023-05-07T03:45:01;13.20;99.90
11744;DHT22;5929;51.906;7.674;2023-05-07T03:47:28;13.20;99.90
11744;DHT22;5929;51.906;7.674;2023-05-07T03:49:55;13.20;99.90
11744;DHT22;5929;51.906;7.674;2023-05-07T03:52:22;13.20;99.90
11744;DHT22;5929;51.906;7.674;2023-05-07T03:54:52;13.20;99.90
11744;DHT22;5929;51.906;7.674;2023-05-07T03:57:19;13.20;99.90
11744;DHT22;5929;51.906;7.674;2023-05-07T03:59:54;13.20;99.90
11744;DHT22;5929;51.906;7.674;2023-05-07T04:02:21;13.20;99.90
11744;DHT22;5929;51.906;7.674;2023-05-07T04:04:48;13.20;99.90
11744;DHT22;5929;51.906;7.674;2023-05-07T04:07:15;13.10;99.90
11744;DHT22;5929;51.906;7.674;2023-05-07T04:09:42;13.10;99.90
11744;DHT22;5929;51.906;7.674;2023-05-07T04:12:09;13.00;99.90
11744;DHT22;5929;51.906;7.674;2023-05-07T04:14:35;13.10;99.90
11744;DHT22;5929;51.906;7.674;2023-05-07T04:17:03;13.00;99.90
11744;DHT22;5929;51.906;7.674;2023-05-07T04:19:33;13.00;99.90
11744;DHT22;5929;51.906;7.674;2023-05-07T04:22:00;13.00;99.90
11744;DHT22;5929;51.906;7.674;2023-05-07T04:24:27;13.10;99.90
11744;DHT22;5929;51.906;7.674;2023-05-07T04:26:53;13.00;99.90
11744;DHT22;5929;51.906;7.674;2023-05-07T04:29:20;13.00;99.90
11744;DHT22;5929;51.906;7.674;2023-05-07T04:31:47;13.00;99.90
11744;DHT22;5929;51.906;7.674;2023-05-07T04:34:17;13.10;99.90
11744;DHT22;5929;51.906;7.674;2023-05-07T04:36:46;13.10;99.90
11744;DHT22;5929;51.906;7.674;2023-05-07T04:39:13;13.10;99.90
11744;DHT22;5929;51.906;7.674;2023-05-07T04:41:40;13.20;99.90
11744;DHT22;5929;51.906;7.674;2023-05-07T04:44:07;13.20;99.90
11744;DHT22;5929;51.906;7.674;2023-05-07T04:46:37;13.20;99.90
11744;DHT22;5929;51.906;7.674;2023-05-07T04:49:03;13.20;99.90
11744;DHT22;5929;51.906;7.674;2023-05-07T04:51:32;13.20;99.90
11744;DHT22;5929;51.906;7.674;2023-05-07T04:53:59;13.30;99.90
11744;DHT22;5929;51.906;7.674;2023-05-07T04:56:27;13.30;99.90
11744;DHT22;5929;51.906;7.674;2023-05-07T04:58:54;13.30;99.90
11744;DHT22;5929;51.906;7.674;2023-05-07T05:01:21;13.20;99.90
11744;DHT22;5929;51.906;7.674;2023-05-07T05:03:50;13.30;99.90
11744;DHT22;5929;51.906;7.674;2023-05-07T05:06:18;13.30;99.90
11744;DHT22;5929;51.906;7.674;2023-05-07T05:08:46;13.40;99.90
11744;DHT22;5929;51.906;7.674;2023-05-07T05:11:13;13.40;99.90
11744;DHT22;5929;51.906;7.674;2023-05-07T05:13:40;13.40;99.90
11744;DHT22;5929;51.906;7.674;2023-05-07T05:16:07;13.40;99.90
11744;DHT22;5929;51.906;7.674;2023-05-07T05:18:34;13.40;99.90
11744;DHT22;5929;51.906;7.674;2023-05-07T05:21:01;13.50;99.90
11744;DHT22;5929;51.906;7.674;2023-05-07T05:23:27;13.50;99.90
11744;DHT22;5929;51.906;7.674;2023-05-07T05:25:57;13.60;99.90
11744;DHT22;5929;51.906;7.674;2023-05-07T05:28:24;13.60;99.90
11744;DHT22;5929;51.906;7.674;2023-05-07T05:30:53;13.60;99.90
11744;DHT22;5929;51.906;7.674;2023-05-07T05:33:20;13.50;99.90
11744;DHT22;5929;51.906;7.674;2023-05-07T05:35:46;13.60;99.90
11744;DHT22;5929;51.906;7.674;2023-05-07T05:38:13;13.60;99.90
11744;DHT22;5929;51.906;7.674;2023-05-07T05:40:40;13.60;99.90
11744;DHT22;5929;51.906;7.674;2023-05-07T05:43:08;13.70;99.90
11744;DHT22;5929;51.906;7.674;2023-05-07T05:45:35;13.70;99.90
11744;DHT22;5929;51.906;7.674;2023-05-07T05:48:02;13.80;99.90
11744;DHT22;5929;51.906;7.674;2023-05-07T05:50:29;13.90;99.90
11744;DHT22;5929;51.906;7.674;2023-05-07T05:52:56;13.90;99.90
11744;DHT22;5929;51.906;7.674;2023-05-07T05:55:23;13.90;99.90
11744;DHT22;5929;51.906;7.674;2023-05-07T05:57:50;13.90;99.90
11744;DHT22;5929;51.906;7.674;2023-05-07T06:00:18;13.90;99.90
11744;DHT22;5929;51.906;7.674;2023-05-07T06:02:47;14.00;99.90
11744;DHT22;5929;51.906;7.674;2023-05-07T06:05:14;14.00;99.90
11744;DHT22;5929;51.906;7.674;2023-05-07T06:07:41;14.10;99.90
11744;DHT22;5929;51.906;7.674;2023-05-07T06:10:08;14.10;99.90
11744;DHT22;5929;51.906;7.674;2023-05-07T06:12:35;14.10;99.90
11744;DHT22;5929;51.906;7.674;2023-05-07T06:15:02;14.10;99.90
11744;DHT22;5929;51.906;7.674;2023-05-07T06:17:33;14.10;99.90
11744;DHT22;5929;51.906;7.674;2023-05-07T06:20:00;14.00;99.90
11744;DHT22;5929;51.906;7.674;2023-05-07T06:22:27;14.00;99.90
11744;DHT22;5929;51.906;7.674;2023-05-07T06:24:53;14.10;99.90
11744;DHT22;5929;51.906;7.674;2023-05-07T06:27:20;14.10;99.90
11744;DHT22;5929;51.906;7.674;2023-05-07T06:29:48;14.20;99.90
11744;DHT22;5929;51.906;7.674;2023-05-07T06:32:15;14.20;99.90
11744;DHT22;5929;51.906;7.674;2023-05-07T06:34:43;14.20;99.90
11744;DHT22;5929;51.906;7.674;2023-05-07T06:37:10;14.30;99.90
11744;DHT22;5929;51.906;7.674;2023-05-07T06:39:37;14.40;99.90
11744;DHT22;5929;51.906;7.674;2023-05-07T06:42:04;14.40;99.90
11744;DHT22;5929;51.906;7.674;2023-05-07T06:44:31;14.50;99.90
11744;DHT22;5929;51.906;7.674;2023-05-07T06:46:58;14.70;99.90
11744;DHT22;5929;51.906;7.674;2023-05-07T06:49:25;14.80;99.90
11744;DHT22;5929;51.906;7.674;2023-05-07T06:51:53;14.90;99.90
11744;DHT22;5929;51.906;7.674;2023-05-07T06:54:21;15.00;99.90
11744;DHT22;5929;51.906;7.674;2023-05-07T06:56:47;15.10;99.90
11744;DHT22;5929;51.906;7.674;2023-05-07T06:59:15;15.20;99.90
11744;DHT22;5929;51.906;7.674;2023-05-07T07:01:42;15.10;99.90
11744;DHT22;5929;51.906;7.674;2023-05-07T07:04:08;15.10;99.90
11744;DHT22;5929;51.906;7.674;2023-05-07T07:06:35;15.30;99.90
11744;DHT22;5929;51.906;7.674;2023-05-07T07:09:04;15.30;99.90
11744;DHT22;5929;51.906;7.674;2023-05-07T07:11:30;15.30;99.90
11744;DHT22;5929;51.906;7.674;2023-05-07T07:13:57;15.40;99.90
11744;DHT22;5929;51.906;7.674;2023-05-07T07:16:24;15.30;99.90
11744;DHT22;5929;51.906;7.674;2023-05-07T07:18:51;15.40;99.90
11744;DHT22;5929;51.906;7.674;2023-05-07T07:21:18;15.40;99.90
11744;DHT22;5929;51.906;7.674;2023-05-07T07:23:45;15.40;99.90
11744;DHT22;5929;51.906;7.674;2023-05-07T07:26:13;15.40;99.90
11744;DHT22;5929;51.906;7.674;2023-05-07T07:28:43;15.50;99.90
11744;DHT22;5929;51.906;7.674;2023-05-07T07:31:10;15.60;99.90
11744;DHT22;5929;51.906;7.674;2023-05-07T07:33:37;15.70;99.90
11744;DHT22;5929;51.906;7.674;2023-05-07T07:36:05;15.70;99.90
11744;DHT22;5929;51.906;7.674;2023-05-07T07:38:32;15.70;99.90
11744;DHT22;5929;51.906;7.674;2023-05-07T07:40:59;15.80;99.90
11744;DHT22;5929;51.906;7.674;2023-05-07T07:43:28;15.90;99.90
11744;DHT22;5929;51.906;7.674;2023-05-07T07:45:54;15.90;99.90
11744;DHT22;5929;51.906;7.674;2023-05-07T07:48:21;15.80;99.90
11744;DHT22;5929;51.906;7.674;2023-05-07T07:50:49;15.70;99.90
11744;DHT22;5929;51.906;7.674;2023-05-07T07:53:16;15.80;99.90
11744;DHT22;5929;51.906;7.674;2023-05-07T07:55:43;15.80;99.90
11744;DHT22;5929;51.906;7.674;2023-05-07T07:58:10;16.00;99.90
11744;DHT22;5929;51.906;7.674;2023-05-07T08:00:38;16.00;99.90
11744;DHT22;5929;51.906;7.674;2023-05-07T08:03:05;16.10;99.90
11744;DHT22;5929;51.906;7.674;2023-05-07T08:05:32;16.20;99.90
11744;DHT22;5929;51.906;7.674;2023-05-07T08:07:59;16.30;99.90
11744;DHT22;5929;51.906;7.674;2023-05-07T08:10:26;16.30;99.90
11744;DHT22;5929;51.906;7.674;2023-05-07T08:12:53;16.30;99.90
11744;DHT22;5929;51.906;7.674;2023-05-07T08:15:20;16.40;99.90
11744;DHT22;5929;51.906;7.674;2023-05-07T08:17:48;16.30;99.90
11744;DHT22;5929;51.906;7.674;2023-05-07T08:20:15;16.40;99.90
11744;DHT22;5929;51.906;7.674;2023-05-07T08:22:42;16.40;99.90
11744;DHT22;5929;51.906;7.674;2023-05-07T08:25:09;16.60;99.90
11744;DHT22;5929;51.906;7.674;2023-05-07T08:27:36;16.60;99.90
11744;DHT22;5929;51.906;7.674;2023-05-07T08:30:03;16.60;99.90
11744;DHT22;5929;51.906;7.674;2023-05-07T08:32:31;16.70;99.90
11744;DHT22;5929;51.906;7.674;2023-05-07T08:35:00;16.70;99.90
11744;DHT22;5929;51.906;7.674;2023-05-07T08:37:28;16.70;99.90
11744;DHT22;5929;51.906;7.674;2023-05-07T08:39:55;16.80;99.90
11744;DHT22;5929;51.906;7.674;2023-05-07T08:42:23;16.90;99.90
11744;DHT22;5929;51.906;7.674;2023-05-07T08:44:51;17.00;99.90
11744;DHT22;5929;51.906;7.674;2023-05-07T08:47:22;17.10;99.90
11744;DHT22;5929;51.906;7.674;2023-05-07T08:49:51;17.00;99.90
11744;DHT22;5929;51.906;7.674;2023-05-07T08:52:19;17.00;99.90
11744;DHT22;5929;51.906;7.674;2023-05-07T08:54:46;17.30;99.90
11744;DHT22;5929;51.906;7.674;2023-05-07T08:57:13;17.30;99.90
11744;DHT22;5929;51.906;7.674;2023-05-07T08:59:40;17.20;99.90
11744;DHT22;5929;51.906;7.674;2023-05-07T09:02:09;17.40;99.90
11744;DHT22;5929;51.906;7.674;2023-05-07T09:04:38;17.20;99.90
11744;DHT22;5929;51.906;7.674;2023-05-07T09:07:05;17.30;99.90
11744;DHT22;5929;51.906;7.674;2023-05-07T09:09:33;17.20;99.90
11744;DHT22;5929;51.906;7.674;2023-05-07T09:12:00;17.30;99.90
11744;DHT22;5929;51.906;7.674;2023-05-07T09:14:29;17.30;99.90
11744;DHT22;5929;51.906;7.674;2023-05-07T09:16:56;17.40;99.90
11744;DHT22;5929;51.906;7.674;2023-05-07T09:19:23;17.50;99.90
11744;DHT22;5929;51.906;7.674;2023-05-07T09:21:57;17.70;99.90
11744;DHT22;5929;51.906;7.674;2023-05-07T09:24:24;17.50;99.90
11744;DHT22;5929;51.906;7.674;2023-05-07T09:26:57;17.70;99.90
11744;DHT22;5929;51.906;7.674;2023-05-07T09:29:25;17.70;99.90
11744;DHT22;5929;51.906;7.674;2023-05-07T09:31:56;17.90;99.90
11744;DHT22;5929;51.906;7.674;2023-05-07T09:34:23;17.90;99.90
11744;DHT22;5929;51.906;7.674;2023-05-07T09:36:50;18.00;99.90
11744;DHT22;5929;51.906;7.674;2023-05-07T09:39:17;18.00;99.90
11744;DHT22;5929;51.906;7.674;2023-05-07T09:41:44;18.00;99.90
11744;DHT22;5929;51.906;7.674;2023-05-07T09:44:12;18.00;99.90
11744;DHT22;5929;51.906;7.674;2023-05-07T09:46:43;18.00;99.90
11744;DHT22;5929;51.906;7.674;2023-05-07T09:49:13;18.10;99.90
11744;DHT22;5929;51.906;7.674;2023-05-07T09:51:47;18.20;99.90
11744;DHT22;5929;51.906;7.674;2023-05-07T09:54:15;18.10;99.90
11744;DHT22;5929;51.906;7.674;2023-05-07T09:56:43;18.20;99.90
11744;DHT22;5929;51.906;7.674;2023-05-07T09:59:12;18.20;99.90
11744;DHT22;5929;51.906;7.674;2023-05-07T10:01:40;18.20;99.90
11744;DHT22;5929;51.906;7.674;2023-05-07T10:04:08;18.40;99.90
11744;DHT22;5929;51.906;7.674;2023-05-07T10:06:35;18.50;99.90
11744;DHT22;5929;51.906;7.674;2023-05-07T10:09:03;18.50;99.90
11744;DHT22;5929;51.906;7.674;2023-05-07T10:11:32;18.50;99.90
11744;DHT22;5929;51.906;7.674;2023-05-07T10:13:58;18.60;99.90
11744;DHT22;5929;51.906;7.674;2023-05-07T10:16:29;18.60;99.90
11744;DHT22;5929;51.906;7.674;2023-05-07T10:18:58;18.70;99.90
11744;DHT22;5929;51.906;7.674;2023-05-07T10:21:26;18.40;99.90
11744;DHT22;5929;51.906;7.674;2023-05-07T10:23:58;18.30;99.90
11744;DHT22;5929;51.906;7.674;2023-05-07T10:26:27;18.50;99.90
11744;DHT22;5929;51.906;7.674;2023-05-07T10:28:58;18.70;99.90
11744;DHT22;5929;51.906;7.674;2023-05-07T10:31:49;18.70;99.90
11744;DHT22;5929;51.906;7.674;2023-05-07T10:34:23;18.80;99.90
11744;DHT22;5929;51.906;7.674;2023-05-07T10:36:52;19.00;99.90
11744;DHT22;5929;51.906;7.674;2023-05-07T10:39:20;19.00;99.90
11744;DHT22;5929;51.906;7.674;2023-05-07T10:41:48;19.10;99.90
11744;DHT22;5929;51.906;7.674;2023-05-07T10:44:25;19.30;99.90
11744;DHT22;5929;51.906;7.674;2023-05-07T10:47:06;19.80;99.90
11744;DHT22;5929;51.906;7.674;2023-05-07T10:49:35;19.90;99.90
11744;DHT22;5929;51.906;7.674;2023-05-07T10:52:12;20.20;99.90
11744;DHT22;5929;51.906;7.674;2023-05-07T10:54:40;20.10;99.90
11744;DHT22;5929;51.906;7.674;2023-05-07T10:57:33;20.00;99.90
11744;DHT22;5929;51.906;7.674;2023-05-07T11:00:44;20.10;99.90
11744;DHT22;5929;51.906;7.674;2023-05-07T11:03:11;20.40;99.90
11744;DHT22;5929;51.906;7.674;2023-05-07T11:05:38;20.20;99.90
11744;DHT22;5929;51.906;7.674;2023-05-07T11:08:08;20.10;99.90
11744;DHT22;5929;51.906;7.674;2023-05-07T11:10:54;20.30;99.90
11744;DHT22;5929;51.906;7.674;2023-05-07T11:13:42;20.60;99.90
11744;DHT22;5929;51.906;7.674;2023-05-07T11:16:18;21.00;99.90
11744;DHT22;5929;51.906;7.674;2023-05-07T11:18:47;21.00;99.90
11744;DHT22;5929;51.906;7.674;2023-05-07T11:21:32;21.60;99.30
11744;DHT22;5929;51.906;7.674;2023-05-07T11:23:59;21.70;99.90
11744;DHT22;5929;51.906;7.674;2023-05-07T11:26:28;22.00;98.40
11744;DHT22;5929;51.906;7.674;2023-05-07T11:28:55;22.50;97.90
11744;DHT22;5929;51.906;7.674;2023-05-07T11:31:30;22.80;97.40
11744;DHT22;5929;51.906;7.674;2023-05-07T11:33:57;22.90;98.00
11744;DHT22;5929;51.906;7.674;2023-05-07T11:36:24;22.90;97.50
11744;DHT22;5929;51.906;7.674;2023-05-07T11:38:52;22.70;97.60
11744;DHT22;5929;51.906;7.674;2023-05-07T11:41:19;22.60;97.70
11744;DHT22;5929;51.906;7.674;2023-05-07T11:43:57;23.10;97.50
11744;DHT22;5929;51.906;7.674;2023-05-07T11:46:26;23.00;96.50
11744;DHT22;5929;51.906;7.674;2023-05-07T11:48:53;23.50;97.00
11744;DHT22;5929;51.906;7.674;2023-05-07T11:51:21;24.20;96.90
11744;DHT22;5929;51.906;7.674;2023-05-07T11:53:48;23.70;95.90
11744;DHT22;5929;51.906;7.674;2023-05-07T11:56:16;24.60;96.10
11744;DHT22;5929;51.906;7.674;2023-05-07T11:58:46;23.90;95.50
11744;DHT22;5929;51.906;7.674;2023-05-07T12:01:13;23.90;95.20
11744;DHT22;5929;51.906;7.674;2023-05-07T12:03:43;24.10;95.30
11744;DHT22;5929;51.906;7.674;2023-05-07T12:06:11;24.60;95.40
11744;DHT22;5929;51.906;7.674;2023-05-07T12:08:40;25.30;94.50
11744;DHT22;5929;51.906;7.674;2023-05-07T12:11:07;25.60;93.80
11744;DHT22;5929;51.906;7.674;2023-05-07T12:13:35;25.30;94.00
11744;DHT22;5929;51.906;7.674;2023-05-07T12:16:02;25.70;93.90
11744;DHT22;5929;51.906;7.674;2023-05-07T12:18:30;25.90;93.60
11744;DHT22;5929;51.906;7.674;2023-05-07T12:20:59;26.10;92.90
11744;DHT22;5929;51.906;7.674;2023-05-07T12:23:26;26.10;93.40
11744;DHT22;5929;51.906;7.674;2023-05-07T12:25:53;25.30;94.10
11744;DHT22;5929;51.906;7.674;2023-05-07T12:28:20;25.40;94.00
11744;DHT22;5929;51.906;7.674;2023-05-07T12:30:48;25.10;92.70
11744;DHT22;5929;51.906;7.674;2023-05-07T12:33:17;24.70;93.70
11744;DHT22;5929;51.906;7.674;2023-05-07T12:35:44;24.00;93.80
11744;DHT22;5929;51.906;7.674;2023-05-07T12:38:14;23.80;95.30
11744;DHT22;5929;51.906;7.674;2023-05-07T12:40:43;24.20;95.00
11744;DHT22;5929;51.906;7.674;2023-05-07T12:43:15;24.40;95.40
11744;DHT22;5929;51.906;7.674;2023-05-07T12:45:43;24.80;94.50
11744;DHT22;5929;51.906;7.674;2023-05-07T12:48:11;24.60;93.80
11744;DHT22;5929;51.906;7.674;2023-05-07T12:50:38;25.00;94.00
11744;DHT22;5929;51.906;7.674;2023-05-07T12:53:05;24.90;94.20
11744;DHT22;5929;51.906;7.674;2023-05-07T12:55:41;24.60;94.10
11744;DHT22;5929;51.906;7.674;2023-05-07T12:58:08;24.80;94.40
11744;DHT22;5929;51.906;7.674;2023-05-07T13:00:36;25.10;93.90
11744;DHT22;5929;51.906;7.674;2023-05-07T13:03:03;25.20;93.60
11744;DHT22;5929;51.906;7.674;2023-05-07T13:05:31;25.40;93.60
11744;DHT22;5929;51.906;7.674;2023-05-07T13:07:58;24.90;94.10
11744;DHT22;5929;51.906;7.674;2023-05-07T13:10:26;24.60;94.50
11744;DHT22;5929;51.906;7.674;2023-05-07T13:12:54;24.50;94.90
11744;DHT22;5929;51.906;7.674;2023-05-07T13:15:21;24.40;94.60
11744;DHT22;5929;51.906;7.674;2023-05-07T13:17:48;24.40;94.00
11744;DHT22;5929;51.906;7.674;2023-05-07T13:20:15;24.10;94.20
11744;DHT22;5929;51.906;7.674;2023-05-07T13:22:42;23.70;94.90
11744;DHT22;5929;51.906;7.674;2023-05-07T13:25:11;23.80;95.40
11744;DHT22;5929;51.906;7.674;2023-05-07T13:27:38;23.50;95.70
11744;DHT22;5929;51.906;7.674;2023-05-07T13:30:07;23.70;95.30
11744;DHT22;5929;51.906;7.674;2023-05-07T13:32:34;24.00;94.70
11744;DHT22;5929;51.906;7.674;2023-05-07T13:35:01;23.80;95.30
11744;DHT22;5929;51.906;7.674;2023-05-07T13:37:28;23.70;95.00
11744;DHT22;5929;51.906;7.674;2023-05-07T13:39:55;23.50;95.00
11744;DHT22;5929;51.906;7.674;2023-05-07T13:42:22;23.20;95.50
11744;DHT22;5929;51.906;7.674;2023-05-07T13:44:49;23.20;96.10
11744;DHT22;5929;51.906;7.674;2023-05-07T13:47:17;23.10;95.70
11744;DHT22;5929;51.906;7.674;2023-05-07T13:49:44;22.80;95.60
11744;DHT22;5929;51.906;7.674;2023-05-07T13:52:11;22.90;95.90
11744;DHT22;5929;51.906;7.674;2023-05-07T13:54:38;22.60;96.00
11744;DHT22;5929;51.906;7.674;2023-05-07T13:57:05;22.50;96.50
11744;DHT22;5929;51.906;7.674;2023-05-07T13:59:32;22.50;95.80
11744;DHT22;5929;51.906;7.674;2023-05-07T14:02:00;22.40;95.80
11744;DHT22;5929;51.906;7.674;2023-05-07T14:04:28;22.20;96.70
11744;DHT22;5929;51.906;7.674;2023-05-07T14:06:54;22.00;96.90
11744;DHT22;5929;51.906;7.674;2023-05-07T14:09:21;22.00;96.40
11744;DHT22;5929;51.906;7.674;2023-05-07T14:11:48;22.00;97.10
11744;DHT22;5929;51.906;7.674;2023-05-07T14:14:19;22.10;96.80
11744;DHT22;5929;51.906;7.674;2023-05-07T14:16:46;21.90;96.70
11744;DHT22;5929;51.906;7.674;2023-05-07T14:19:13;22.10;96.90
11744;DHT22;5929;51.906;7.674;2023-05-07T14:21:41;22.20;96.00
11744;DHT22;5929;51.906;7.674;2023-05-07T14:24:08;22.10;96.40
11744;DHT22;5929;51.906;7.674;2023-05-07T14:26:35;22.10;96.30
11744;DHT22;5929;51.906;7.674;2023-05-07T14:29:02;22.00;96.30
11744;DHT22;5929;51.906;7.674;2023-05-07T14:31:29;22.10;96.50
11744;DHT22;5929;51.906;7.674;2023-05-07T14:33:56;21.90;96.70
11744;DHT22;5929;51.906;7.674;2023-05-07T14:36:24;21.80;96.90
11744;DHT22;5929;51.906;7.674;2023-05-07T14:38:53;21.70;96.50
11744;DHT22;5929;51.906;7.674;2023-05-07T14:41:22;21.60;96.90
11744;DHT22;5929;51.906;7.674;2023-05-07T14:43:49;21.50;97.00
11744;DHT22;5929;51.906;7.674;2023-05-07T14:46:17;21.70;97.60
11744;DHT22;5929;51.906;7.674;2023-05-07T14:48:46;21.90;97.60
11744;DHT22;5929;51.906;7.674;2023-05-07T14:51:15;21.90;97.10
11744;DHT22;5929;51.906;7.674;2023-05-07T14:53:42;22.00;96.60
11744;DHT22;5929;51.906;7.674;2023-05-07T14:56:10;22.10;96.30
11744;DHT22;5929;51.906;7.674;2023-05-07T14:58:37;22.10;96.70
11744;DHT22;5929;51.906;7.674;2023-05-07T15:01:04;21.80;96.80
11744;DHT22;5929;51.906;7.674;2023-05-07T15:03:31;22.00;97.50
11744;DHT22;5929;51.906;7.674;2023-05-07T15:05:58;21.90;96.60
11744;DHT22;5929;51.906;7.674;2023-05-07T15:08:24;21.80;96.80
11744;DHT22;5929;51.906;7.674;2023-05-07T15:10:52;21.80;97.30
11744;DHT22;5929;51.906;7.674;2023-05-07T15:13:22;21.70;97.00
11744;DHT22;5929;51.906;7.674;2023-05-07T15:15:49;21.50;97.20
11744;DHT22;5929;51.906;7.674;2023-05-07T15:18:16;21.40;97.50
11744;DHT22;5929;51.906;7.674;2023-05-07T15:20:43;21.40;97.60
11744;DHT22;5929;51.906;7.674;2023-05-07T15:23:10;21.40;97.20
11744;DHT22;5929;51.906;7.674;2023-05-07T15:25:37;21.30;97.70
11744;DHT22;5929;51.906;7.674;2023-05-07T15:28:04;21.10;97.90
11744;DHT22;5929;51.906;7.674;2023-05-07T15:30:34;21.20;98.40
11744;DHT22;5929;51.906;7.674;2023-05-07T15:33:01;21.20;97.60
11744;DHT22;5929;51.906;7.674;2023-05-07T15:35:28;21.00;97.30
11744;DHT22;5929;51.906;7.674;2023-05-07T15:37:58;21.00;97.60
11744;DHT22;5929;51.906;7.674;2023-05-07T15:40:24;21.20;97.50
11744;DHT22;5929;51.906;7.674;2023-05-07T15:42:54;21.20;97.30
11744;DHT22;5929;51.906;7.674;2023-05-07T15:45:22;21.20;97.50
11744;DHT22;5929;51.906;7.674;2023-05-07T15:47:50;21.10;97.30
11744;DHT22;5929;51.906;7.674;2023-05-07T15:50:17;21.00;97.90